createdAt,value
2023-05-26T00:01:29.558Z,4.25
2023-05-26T00:04:32.753Z,4.77
2023-05-26T00:07:38.250Z,4.35
2023-05-26T00:10:40.726Z,4.15
2023-05-26T00:13:43.007Z,4.20
2023-05-26T00:16:45.834Z,4.57
2023-05-26T00:19:50.298Z,3.77
2023-05-26T00:22:52.449Z,4.30
2023-05-26T00:25:54.407Z,4.68
2023-05-26T00:28:56.749Z,5.30
2023-05-26T00:31:58.782Z,5.13
2023-05-26T00:35:01.936Z,5.17
2023-05-26T00:38:03.920Z,5.13
2023-05-26T00:41:06.182Z,4.60
2023-05-26T00:44:08.305Z,4.53
2023-05-26T00:47:10.938Z,4.75
2023-05-26T00:50:14.047Z,4.83
2023-05-26T00:53:18.941Z,5.07
2023-05-26T00:56:21.036Z,4.82
2023-05-26T00:59:23.444Z,5.18
2023-05-26T01:02:26.630Z,4.78
2023-05-26T01:05:28.720Z,4.37
2023-05-26T01:08:31.276Z,4.70
2023-05-26T01:11:41.625Z,4.20
2023-05-26T01:14:50.868Z,4.22
2023-05-26T01:18:06.675Z,4.70
2023-05-26T01:21:12.170Z,4.53
2023-05-26T01:24:44.525Z,4.30
2023-05-26T01:28:11.369Z,3.58
2023-05-26T01:31:13.839Z,4.07
2023-05-26T01:34:16.941Z,4.57
2023-05-26T01:37:18.975Z,4.70
2023-05-26T01:40:21.127Z,4.28
2023-05-26T01:43:43.649Z,4.03
2023-05-26T01:46:50.684Z,4.95
2023-05-26T01:49:53.002Z,4.43
2023-05-26T01:52:58.344Z,5.00
2023-05-26T01:56:01.726Z,4.55
2023-05-26T01:59:04.285Z,4.90
2023-05-26T02:02:09.693Z,4.80
2023-05-26T02:05:13.644Z,4.90
2023-05-26T02:08:15.755Z,4.90
2023-05-26T02:11:17.880Z,5.15
2023-05-26T02:14:19.871Z,4.15
2023-05-26T02:17:22.017Z,4.43
2023-05-26T02:20:24.971Z,4.00
2023-05-26T02:23:28.496Z,4.63
2023-05-26T02:26:30.508Z,4.90
2023-05-26T02:29:32.459Z,4.53
2023-05-26T02:32:36.080Z,4.80
2023-05-26T02:35:38.168Z,5.30
2023-05-26T02:38:41.890Z,5.27
2023-05-26T02:41:43.917Z,5.10
2023-05-26T02:44:46.107Z,5.03
2023-05-26T02:47:48.449Z,5.60
2023-05-26T02:50:50.719Z,4.53
2023-05-26T02:53:52.759Z,5.80
2023-05-26T02:56:54.761Z,5.28
2023-05-26T02:59:56.749Z,5.00
2023-05-26T03:02:58.793Z,4.72
2023-05-26T03:06:00.936Z,5.43
2023-05-26T03:09:03.663Z,4.90
2023-05-26T03:12:07.552Z,5.03
2023-05-26T03:15:12.739Z,5.57
2023-05-26T03:18:15.580Z,6.15
2023-05-26T03:21:46.346Z,5.25
2023-05-26T03:24:41.099Z,5.73
2023-05-26T03:27:43.084Z,5.53
2023-05-26T03:30:45.199Z,5.93
2023-05-26T03:33:47.148Z,5.38
2023-05-26T03:36:50.356Z,5.68
2023-05-26T03:40:01.365Z,6.10
2023-05-26T03:43:06.078Z,5.80
2023-05-26T03:46:17.596Z,6.20
2023-05-26T03:49:20.351Z,6.35
2023-05-26T03:52:22.433Z,5.70
2023-05-26T03:55:24.502Z,5.80
2023-05-26T03:58:26.573Z,5.68
2023-05-26T04:01:29.149Z,5.80
2023-05-26T04:04:32.234Z,5.75
2023-05-26T04:07:34.442Z,6.45
2023-05-26T04:10:36.487Z,6.30
2023-05-26T04:13:39.882Z,7.03
2023-05-26T04:16:41.912Z,6.20
2023-05-26T04:19:44.013Z,6.50
2023-05-26T04:22:46.516Z,6.00
2023-05-26T04:25:49.332Z,6.83
2023-05-26T04:29:07.431Z,6.18
2023-05-26T04:32:27.835Z,6.85
2023-05-26T04:35:31.656Z,7.47
2023-05-26T04:38:33.653Z,6.45
2023-05-26T04:41:35.971Z,7.63
2023-05-26T04:44:39.226Z,5.88
2023-05-26T04:47:41.660Z,6.00
2023-05-26T04:50:43.787Z,6.13
2023-05-26T04:53:45.787Z,6.40
2023-05-26T04:56:47.851Z,5.63
2023-05-26T04:59:50.880Z,6.68
2023-05-26T05:02:54.061Z,6.93
2023-05-26T05:06:15.273Z,5.72
2023-05-26T05:09:17.383Z,6.28
2023-05-26T05:12:19.403Z,5.47
2023-05-26T05:15:21.785Z,5.47
2023-05-26T05:18:23.985Z,4.88
2023-05-26T05:21:25.980Z,4.60
2023-05-26T05:24:31.661Z,4.43
2023-05-26T05:27:33.640Z,4.37
2023-05-26T05:30:36.429Z,4.40
2023-05-26T05:33:40.003Z,4.40
2023-05-26T05:36:42.166Z,4.07
2023-05-26T05:39:44.250Z,3.80
2023-05-26T05:42:46.356Z,3.63
2023-05-26T05:45:48.331Z,3.30
2023-05-26T05:49:08.879Z,3.80
2023-05-26T05:52:15.665Z,3.83
2023-05-26T05:55:17.739Z,4.22
2023-05-26T05:58:19.724Z,3.80
2023-05-26T06:01:23.333Z,3.97
2023-05-26T06:04:26.354Z,3.70
2023-05-26T06:07:28.403Z,3.90
2023-05-26T06:10:30.489Z,4.03
2023-05-26T06:13:33.616Z,3.80
2023-05-26T06:16:35.903Z,4.40
2023-05-26T06:19:37.978Z,4.05
2023-05-26T06:22:40.196Z,3.65
2023-05-26T06:25:42.319Z,6.85
2023-05-26T06:28:45.566Z,4.90
2023-05-26T06:31:48.669Z,4.63
2023-05-26T06:34:54.178Z,4.47
2023-05-26T06:37:56.595Z,5.18
2023-05-26T06:40:58.681Z,4.85
2023-05-26T06:44:02.166Z,5.00
2023-05-26T06:47:06.027Z,4.22
2023-05-26T06:50:10.935Z,4.78
2023-05-26T06:53:13.882Z,4.70
2023-05-26T06:56:16.145Z,4.90
2023-05-26T06:59:18.188Z,4.57
2023-05-26T07:02:20.430Z,5.13
2023-05-26T07:05:24.292Z,4.50
2023-05-26T07:08:28.180Z,4.40
2023-05-26T07:11:40.400Z,4.05
2023-05-26T07:14:56.846Z,4.57
2023-05-26T07:17:58.810Z,4.95
2023-05-26T07:21:01.753Z,5.10
2023-05-26T07:24:03.962Z,4.57
2023-05-26T07:27:06.527Z,5.22
2023-05-26T07:30:09.325Z,5.10
2023-05-26T07:33:21.626Z,4.90
2023-05-26T07:36:23.924Z,4.97
2023-05-26T07:39:25.948Z,4.93
2023-05-26T07:42:27.971Z,5.30
2023-05-26T07:45:30.576Z,4.57
2023-05-26T07:48:32.745Z,4.93
2023-05-26T07:51:34.776Z,5.63
2023-05-26T07:54:37.922Z,5.18
2023-05-26T07:57:40.041Z,4.78
2023-05-26T08:00:42.076Z,5.37
2023-05-26T08:03:44.496Z,5.25
2023-05-26T08:06:46.571Z,5.15
2023-05-26T08:09:48.646Z,5.43
2023-05-26T08:12:52.431Z,4.85
2023-05-26T08:15:54.422Z,5.43
2023-05-26T08:18:56.406Z,4.88
2023-05-26T08:21:58.378Z,5.70
2023-05-26T08:25:00.346Z,4.80
2023-05-26T08:28:02.354Z,5.32
2023-05-26T08:31:04.452Z,5.47
2023-05-26T08:34:07.391Z,4.93
2023-05-26T08:37:14.468Z,5.35
2023-05-26T08:40:16.653Z,4.85
2023-05-26T08:43:30.666Z,4.57
2023-05-26T08:46:40.760Z,4.80
2023-05-26T08:49:50.426Z,4.75
2023-05-26T08:56:14.494Z,4.68
2023-05-26T08:59:18.194Z,5.05
2023-05-26T09:02:20.403Z,4.70
2023-05-26T09:05:23.478Z,4.35
2023-05-26T09:08:26.768Z,4.68
2023-05-26T09:11:29.162Z,4.65
2023-05-26T09:14:31.193Z,5.07
2023-05-26T09:17:36.159Z,6.73
2023-05-26T09:20:42.607Z,5.20
2023-05-26T09:23:51.077Z,4.60
2023-05-26T09:26:53.451Z,4.70
2023-05-26T09:29:59.345Z,5.65
2023-05-26T09:33:01.599Z,7.30
2023-05-26T09:36:04.099Z,5.97
2023-05-26T09:39:09.014Z,6.47
2023-05-26T09:42:11.384Z,6.63
2023-05-26T09:45:13.476Z,5.07
2023-05-26T09:48:16.287Z,5.13
2023-05-26T09:51:27.650Z,5.78
2023-05-26T09:54:33.314Z,5.72
2023-05-26T09:57:38.391Z,5.05
2023-05-26T10:00:41.892Z,4.80
2023-05-26T10:03:44.358Z,4.80
2023-05-26T10:06:49.878Z,5.03
2023-05-26T10:09:59.294Z,4.85
2023-05-26T10:13:02.457Z,4.88
2023-05-26T10:16:06.042Z,5.13
2023-05-26T10:19:08.357Z,5.43
2023-05-26T10:22:17.894Z,4.95
2023-05-26T10:25:44.287Z,5.10
2023-05-26T10:29:05.099Z,4.90
2023-05-26T10:32:07.295Z,5.10
2023-05-26T10:35:21.215Z,6.63
2023-05-26T10:38:36.717Z,5.47
2023-05-26T10:41:40.692Z,4.55
2023-05-26T10:44:55.509Z,4.07
2023-05-26T10:48:00.382Z,4.40
2023-05-26T10:51:16.170Z,4.50
2023-05-26T10:54:22.377Z,4.68
2023-05-26T10:57:32.433Z,5.43
2023-05-26T11:00:36.353Z,4.05
2023-05-26T11:03:47.182Z,4.75
2023-05-26T11:07:01.421Z,4.27
2023-05-26T11:10:07.191Z,4.18
2023-05-26T11:13:12.780Z,4.35
2023-05-26T11:16:24.740Z,4.18
2023-05-26T11:19:33.962Z,4.50
2023-05-26T11:22:36.282Z,4.97
2023-05-26T11:25:48.166Z,4.47
2023-05-26T11:28:51.316Z,4.40
2023-05-26T11:31:53.495Z,4.75
2023-05-26T11:34:56.247Z,4.07
2023-05-26T11:37:58.282Z,4.20
2023-05-26T11:41:00.473Z,4.30
2023-05-26T11:44:09.453Z,4.63
2023-05-26T11:47:15.632Z,4.30
2023-05-26T11:50:18.943Z,4.28
2023-05-26T11:53:21.299Z,5.10
2023-05-26T11:56:34.351Z,4.63
2023-05-26T11:59:36.515Z,4.68
2023-05-26T12:02:38.733Z,4.82
2023-05-26T12:05:40.819Z,4.53
2023-05-26T12:08:47.749Z,5.00
2023-05-26T12:11:53.899Z,4.53
2023-05-26T12:15:06.996Z,4.38
2023-05-26T12:18:11.057Z,4.30
2023-05-26T12:21:13.393Z,4.70
2023-05-26T12:24:34.724Z,5.13
2023-05-26T12:27:40.593Z,4.20
2023-05-26T12:33:47.862Z,5.05
2023-05-26T12:36:51.228Z,4.65
2023-05-26T12:39:53.335Z,4.40
2023-05-26T12:42:56.091Z,4.15
2023-05-26T12:45:59.331Z,4.28
2023-05-26T12:49:02.286Z,4.78
2023-05-26T12:52:04.395Z,4.50
2023-05-26T12:55:06.576Z,5.03
2023-05-26T12:58:08.755Z,4.65
2023-05-26T13:01:12.140Z,4.30
2023-05-26T13:04:14.413Z,4.80
2023-05-26T13:07:16.569Z,4.75
2023-05-26T13:10:18.801Z,4.80
2023-05-26T13:13:21.336Z,4.47
2023-05-26T13:16:26.204Z,4.90
2023-05-26T13:19:28.753Z,4.65
2023-05-26T13:22:31.800Z,4.72
2023-05-26T13:25:35.222Z,4.40
2023-05-26T13:28:37.284Z,5.18
2023-05-26T13:31:41.306Z,4.43
2023-05-26T13:34:44.391Z,4.95
2023-05-26T13:37:46.487Z,4.78
2023-05-26T13:40:48.482Z,4.03
2023-05-26T13:43:50.520Z,4.38
2023-05-26T13:46:52.730Z,4.90
2023-05-26T13:49:55.888Z,4.72
2023-05-26T13:53:02.801Z,3.85
2023-05-26T13:56:14.173Z,4.30
2023-05-26T13:59:27.085Z,4.05
2023-05-26T14:02:30.513Z,3.92
2023-05-26T14:05:52.568Z,4.70
2023-05-26T14:08:57.088Z,4.30
2023-05-26T14:11:59.149Z,3.90
2023-05-26T14:15:02.904Z,4.20
2023-05-26T14:18:08.518Z,3.90
2023-05-26T14:21:44.626Z,4.18
2023-05-26T14:24:33.511Z,3.95
2023-05-26T14:27:37.346Z,3.83
2023-05-26T14:30:40.512Z,3.30
2023-05-26T14:33:42.602Z,4.05
2023-05-26T14:36:44.613Z,4.10
2023-05-26T14:39:46.679Z,3.88
2023-05-26T14:42:48.797Z,3.63
2023-05-26T14:45:50.878Z,4.00
2023-05-26T14:48:52.865Z,4.40
2023-05-26T14:51:54.912Z,3.67
2023-05-26T14:54:57.040Z,3.22
2023-05-26T14:57:59.130Z,3.70
2023-05-26T15:01:01.546Z,3.55
2023-05-26T15:07:08.966Z,3.70
2023-05-26T15:10:13.679Z,3.40
2023-05-26T15:13:17.830Z,3.50
2023-05-26T15:16:19.889Z,3.53
2023-05-26T15:19:22.019Z,3.80
2023-05-26T15:22:24.107Z,3.50
2023-05-26T15:25:26.258Z,4.22
2023-05-26T15:28:28.573Z,3.50
2023-05-26T15:31:30.888Z,6.35
2023-05-26T15:34:32.913Z,5.50
2023-05-26T15:37:39.401Z,5.97
2023-05-26T15:40:41.967Z,4.07
2023-05-26T15:43:44.192Z,4.03
2023-05-26T15:46:46.272Z,3.83
2023-05-26T15:49:48.263Z,3.90
2023-05-26T15:52:50.432Z,4.00
2023-05-26T15:55:52.425Z,5.38
2023-05-26T15:58:54.490Z,4.10
2023-05-26T16:01:56.572Z,4.30
2023-05-26T16:04:58.549Z,4.68
2023-05-26T16:08:00.642Z,4.78
2023-05-26T16:11:03.037Z,4.00
2023-05-26T16:14:05.297Z,4.00
2023-05-26T16:17:07.476Z,4.22
2023-05-26T16:20:10.099Z,4.32
2023-05-26T16:23:12.374Z,3.70
2023-05-26T16:26:14.424Z,4.18
2023-05-26T16:29:16.961Z,4.20
2023-05-26T16:32:18.981Z,3.38
2023-05-26T16:35:21.748Z,3.65
2023-05-26T16:38:25.012Z,3.22
2023-05-26T16:41:27.718Z,3.88
2023-05-26T16:44:29.808Z,3.37
2023-05-26T16:47:33.269Z,3.60
2023-05-26T16:50:35.344Z,3.20
2023-05-26T16:53:37.468Z,3.35
2023-05-26T16:56:40.669Z,2.95
2023-05-26T16:59:42.737Z,3.20
2023-05-26T17:02:45.653Z,2.80
2023-05-26T17:05:47.792Z,2.80
2023-05-26T17:08:49.773Z,3.00
2023-05-26T17:11:51.828Z,2.90
2023-05-26T17:14:54.036Z,2.83
2023-05-26T17:17:56.796Z,3.60
2023-05-26T17:20:58.896Z,2.80
2023-05-26T17:24:01.462Z,3.10
2023-05-26T17:27:03.544Z,3.40
2023-05-26T17:30:06.653Z,3.20
2023-05-26T17:33:08.913Z,3.80
2023-05-26T17:36:11.128Z,3.08
2023-05-26T17:39:13.467Z,3.13
2023-05-26T17:42:15.993Z,3.67
2023-05-26T17:45:17.941Z,3.10
2023-05-26T17:48:20.215Z,3.28
2023-05-26T17:51:22.555Z,3.33
2023-05-26T17:54:29.422Z,3.30
2023-05-26T17:57:31.653Z,3.58
2023-05-26T18:00:33.684Z,3.40
2023-05-26T18:03:36.440Z,3.03
2023-05-26T18:06:38.659Z,3.10
2023-05-26T18:09:41.142Z,3.67
2023-05-26T18:12:44.047Z,3.90
2023-05-26T18:15:47.014Z,3.80
2023-05-26T18:18:49.025Z,3.65
2023-05-26T18:21:51.381Z,4.47
2023-05-26T18:24:53.508Z,3.95
2023-05-26T18:27:56.295Z,3.88
2023-05-26T18:30:58.506Z,3.50
2023-05-26T18:34:09.456Z,4.10
2023-05-26T18:37:18.416Z,3.70
2023-05-26T18:40:20.955Z,3.38
2023-05-26T18:43:23.013Z,4.18
2023-05-26T18:46:25.431Z,4.17
2023-05-26T18:49:27.659Z,4.10
2023-05-26T18:52:29.896Z,4.32
2023-05-26T18:55:33.505Z,4.25
2023-05-26T18:58:35.783Z,4.03
2023-05-26T19:01:37.962Z,3.77
2023-05-26T19:04:40.080Z,4.57
2023-05-26T19:07:42.717Z,4.55
2023-05-26T19:10:44.941Z,4.70
2023-05-26T19:13:46.993Z,4.57
2023-05-26T19:16:49.407Z,4.40
2023-05-26T19:19:53.791Z,4.63
2023-05-26T19:22:57.153Z,4.93
2023-05-26T19:25:59.297Z,4.45
2023-05-26T19:29:04.489Z,5.25
2023-05-26T19:32:07.200Z,4.97
2023-05-26T19:35:10.217Z,5.13
2023-05-26T19:38:12.219Z,4.85
2023-05-26T19:41:15.197Z,4.95
2023-05-26T19:44:17.439Z,5.25
2023-05-26T19:47:19.637Z,4.17
2023-05-26T19:50:21.992Z,4.63
2023-05-26T19:53:24.414Z,4.93
2023-05-26T19:56:27.095Z,4.60
2023-05-26T19:59:29.182Z,5.30
2023-05-26T20:02:31.344Z,5.13
2023-05-26T20:05:33.830Z,5.65
2023-05-26T20:08:36.369Z,5.47
2023-05-26T20:11:38.584Z,5.10
2023-05-26T20:14:40.746Z,5.28
2023-05-26T20:17:42.732Z,5.67
2023-05-26T20:20:45.002Z,5.75
2023-05-26T20:23:47.152Z,5.85
2023-05-26T20:26:49.191Z,5.25
2023-05-26T20:29:51.428Z,6.00
2023-05-26T20:32:53.551Z,6.13
2023-05-26T20:35:55.760Z,6.60
2023-05-26T20:38:58.112Z,6.10
2023-05-26T20:42:00.174Z,6.75
2023-05-26T20:45:02.266Z,5.72
2023-05-26T20:48:04.518Z,6.13
2023-05-26T20:51:06.857Z,6.00
2023-05-26T20:54:10.039Z,5.97
2023-05-26T20:57:12.150Z,5.28
2023-05-26T21:00:15.246Z,4.90
2023-05-26T21:03:17.364Z,4.50
2023-05-26T21:06:19.652Z,4.75
2023-05-26T21:09:21.664Z,4.15
2023-05-26T21:12:23.679Z,4.18
2023-05-26T21:15:25.921Z,3.60
2023-05-26T21:18:28.003Z,4.03
2023-05-26T21:21:30.080Z,3.55
2023-05-26T21:24:32.410Z,3.80
2023-05-26T21:27:34.611Z,3.30
2023-05-26T21:30:36.682Z,3.45
2023-05-26T21:33:40.100Z,3.73
2023-05-26T21:36:42.127Z,3.88
2023-05-26T21:39:44.116Z,3.53
2023-05-26T21:42:46.187Z,2.88
2023-05-26T21:45:49.153Z,2.95
2023-05-26T21:48:51.246Z,2.77
2023-05-26T21:51:53.285Z,3.22
2023-05-26T21:54:55.251Z,2.85
2023-05-26T21:57:57.534Z,2.80
2023-05-26T22:00:59.527Z,3.63
2023-05-26T22:04:01.611Z,3.20
2023-05-26T22:07:03.633Z,3.20
2023-05-26T22:10:07.129Z,2.70
2023-05-26T22:13:09.124Z,3.22
2023-05-26T22:16:11.216Z,3.58
2023-05-26T22:19:13.349Z,3.30
2023-05-26T22:22:15.477Z,3.33
2023-05-26T22:25:17.765Z,3.22
2023-05-26T22:28:20.602Z,3.67
2023-05-26T22:31:22.651Z,2.67
2023-05-26T22:34:24.805Z,3.67
2023-05-26T22:37:26.904Z,4.43
2023-05-26T22:40:28.952Z,4.18
2023-05-26T22:43:30.988Z,4.38
2023-05-26T22:46:33.145Z,4.53
2023-05-26T22:49:35.140Z,4.50
2023-05-26T22:52:40.070Z,3.80
2023-05-26T22:56:08.955Z,4.78
2023-05-26T22:59:04.517Z,4.18
2023-05-26T23:02:06.593Z,4.78
2023-05-26T23:05:09.524Z,4.00
2023-05-26T23:08:13.340Z,4.30
2023-05-26T23:11:15.609Z,4.63
2023-05-26T23:14:17.906Z,4.55
2023-05-26T23:17:19.952Z,4.05
2023-05-26T23:20:22.013Z,4.63
2023-05-26T23:23:24.057Z,4.50
2023-05-26T23:26:26.521Z,4.32
2023-05-26T23:29:28.522Z,4.68
2023-05-26T23:32:30.756Z,5.03
2023-05-26T23:35:32.753Z,4.70
2023-05-26T23:38:36.143Z,5.10
2023-05-26T23:41:38.173Z,4.65
2023-05-26T23:44:40.263Z,4.22
2023-05-26T23:47:42.309Z,4.80
2023-05-26T23:50:44.364Z,4.73
2023-05-26T23:53:46.593Z,4.68
2023-05-26T23:56:48.584Z,4.57
2023-05-26T23:59:50.840Z,4.53
